createdAt,value
2023-02-22T00:00:59.978Z,4.20
2023-02-22T00:03:32.536Z,3.70
2023-02-22T00:06:02.831Z,3.40
2023-02-22T00:08:34.234Z,3.50
2023-02-22T00:11:12.606Z,2.90
2023-02-22T00:13:39.514Z,2.20
2023-02-22T00:16:07.146Z,2.70
2023-02-22T00:18:34.167Z,3.00
2023-02-22T00:21:03.951Z,2.60
2023-02-22T00:23:32.215Z,3.00
2023-02-22T00:26:01.334Z,2.80
2023-02-22T00:28:28.264Z,3.30
2023-02-22T00:30:55.602Z,3.30
2023-02-22T00:33:23.149Z,2.90
2023-02-22T00:35:50.327Z,2.70
2023-02-22T00:38:19.050Z,2.80
2023-02-22T00:40:45.919Z,3.10
2023-02-22T00:43:13.083Z,2.90
2023-02-22T00:45:41.348Z,3.00
2023-02-22T00:48:09.770Z,3.40
2023-02-22T00:50:37.748Z,3.00
2023-02-22T00:53:06.188Z,3.30
2023-02-22T00:55:36.129Z,2.80
2023-02-22T00:58:04.228Z,1.90
2023-02-22T01:00:34.118Z,2.30
2023-02-22T01:03:01.393Z,2.40
2023-02-22T01:05:30.255Z,2.70
2023-02-22T01:07:58.772Z,2.80
2023-02-22T01:10:29.709Z,2.70
2023-02-22T01:12:57.630Z,2.50
2023-02-22T01:15:29.220Z,3.40
2023-02-22T01:17:58.478Z,2.90
2023-02-22T01:20:26.841Z,2.50
2023-02-22T01:22:56.047Z,2.80
2023-02-22T01:25:25.871Z,3.00
2023-02-22T01:27:53.810Z,2.90
2023-02-22T01:30:27.858Z,2.90
2023-02-22T01:32:55.512Z,2.80
2023-02-22T01:35:27.931Z,2.90
2023-02-22T01:37:55.561Z,2.80
2023-02-22T01:40:32.544Z,2.40
2023-02-22T01:43:02.883Z,2.30
2023-02-22T01:45:32.962Z,2.30
2023-02-22T01:48:03.413Z,2.40
2023-02-22T01:50:35.255Z,2.60
2023-02-22T01:53:03.478Z,2.80
2023-02-22T01:55:32.253Z,2.60
2023-02-22T01:57:59.467Z,2.70
2023-02-22T02:00:27.872Z,2.50
2023-02-22T02:03:02.938Z,2.70
2023-02-22T02:05:33.271Z,2.80
2023-02-22T02:08:26.233Z,2.90
2023-02-22T02:10:55.432Z,2.80
2023-02-22T02:13:22.805Z,3.00
2023-02-22T02:15:52.981Z,2.80
2023-02-22T02:18:20.058Z,2.90
2023-02-22T02:21:25.442Z,2.90
2023-02-22T02:24:50.684Z,2.80
2023-02-22T02:27:21.496Z,2.00
2023-02-22T02:30:06.947Z,2.30
2023-02-22T02:32:45.749Z,2.50
2023-02-22T02:35:31.200Z,2.90
2023-02-22T02:38:14.362Z,2.90
2023-02-22T02:41:05.016Z,2.90
2023-02-22T02:43:58.336Z,2.90
2023-02-22T02:46:59.388Z,2.70
2023-02-22T02:49:36.591Z,2.90
2023-02-22T02:52:05.075Z,2.90
2023-02-22T02:54:34.283Z,2.90
2023-02-22T02:57:03.416Z,3.20
2023-02-22T02:59:32.113Z,3.00
2023-02-22T03:02:26.242Z,3.10
2023-02-22T03:05:00.599Z,2.90
2023-02-22T03:07:49.434Z,3.00
2023-02-22T03:10:25.396Z,2.10
2023-02-22T03:13:16.303Z,2.10
2023-02-22T03:15:52.622Z,2.40
2023-02-22T03:18:23.097Z,2.50
2023-02-22T03:21:00.055Z,2.60
2023-02-22T03:23:39.152Z,2.90
2023-02-22T03:26:13.826Z,2.70
2023-02-22T03:28:44.536Z,3.10
2023-02-22T03:31:18.418Z,3.00
2023-02-22T03:34:04.925Z,3.30
2023-02-22T03:36:39.221Z,3.00
2023-02-22T03:39:11.123Z,3.00
2023-02-22T03:41:40.789Z,3.20
2023-02-22T03:44:12.342Z,3.00
2023-02-22T03:46:41.256Z,2.80
2023-02-22T03:49:23.637Z,3.20
2023-02-22T03:51:51.217Z,3.20
2023-02-22T03:54:18.422Z,3.60
2023-02-22T03:56:55.584Z,2.40
2023-02-22T03:59:27.703Z,2.30
2023-02-22T04:01:55.613Z,2.80
2023-02-22T04:04:24.192Z,2.80
2023-02-22T04:06:52.847Z,2.70
2023-02-22T04:09:20.121Z,3.20
2023-02-22T04:11:48.055Z,3.00
2023-02-22T04:14:16.846Z,3.20
2023-02-22T04:16:46.095Z,3.20
2023-02-22T04:19:13.192Z,3.50
2023-02-22T04:21:40.345Z,3.30
2023-02-22T04:24:14.265Z,3.40
2023-02-22T04:26:42.457Z,3.50
2023-02-22T04:29:09.472Z,3.60
2023-02-22T04:31:39.406Z,3.60
2023-02-22T04:34:06.946Z,3.20
2023-02-22T04:36:37.767Z,3.50
2023-02-22T04:39:05.504Z,3.50
2023-02-22T04:41:33.477Z,3.80
2023-02-22T04:44:01.072Z,3.10
2023-02-22T04:46:28.978Z,2.60
2023-02-22T04:48:56.300Z,3.20
2023-02-22T04:51:25.914Z,3.20
2023-02-22T04:54:07.638Z,3.30
2023-02-22T04:56:35.841Z,3.40
2023-02-22T04:59:02.797Z,3.60
2023-02-22T05:01:35.812Z,3.20
2023-02-22T05:04:04.285Z,3.60
2023-02-22T05:06:31.332Z,3.80
2023-02-22T05:08:58.357Z,4.00
2023-02-22T05:11:25.410Z,3.70
2023-02-22T05:13:52.602Z,3.90
2023-02-22T05:16:19.766Z,4.00
2023-02-22T05:18:46.904Z,3.80
2023-02-22T05:21:14.259Z,4.40
2023-02-22T05:23:41.805Z,4.00
2023-02-22T05:26:11.256Z,3.30
2023-02-22T05:28:38.618Z,2.70
2023-02-22T05:31:07.638Z,3.70
2023-02-22T05:33:34.837Z,3.80
2023-02-22T05:36:02.591Z,3.70
2023-02-22T05:38:30.329Z,3.70
2023-02-22T05:40:57.521Z,4.20
2023-02-22T05:43:24.625Z,4.40
2023-02-22T05:45:51.673Z,4.10
2023-02-22T05:48:18.887Z,3.90
2023-02-22T05:50:46.591Z,4.30
2023-02-22T05:53:13.514Z,4.30
2023-02-22T05:55:40.881Z,4.10
2023-02-22T05:58:08.954Z,4.70
2023-02-22T06:00:36.507Z,4.60
2023-02-22T06:03:06.302Z,4.30
2023-02-22T06:05:33.903Z,4.70
2023-02-22T06:08:02.360Z,5.00
2023-02-22T06:10:29.841Z,3.60
2023-02-22T06:12:57.058Z,3.10
2023-02-22T06:15:25.695Z,3.80
2023-02-22T06:17:53.942Z,4.10
2023-02-22T06:20:23.538Z,4.30
2023-02-22T06:22:52.039Z,4.90
2023-02-22T06:25:23.411Z,4.50
2023-02-22T06:27:50.722Z,5.00
2023-02-22T06:30:21.181Z,5.90
2023-02-22T06:32:48.165Z,5.70
2023-02-22T06:35:16.400Z,6.30
2023-02-22T06:37:43.384Z,7.20
2023-02-22T06:40:11.479Z,7.70
2023-02-22T06:42:39.862Z,7.60
2023-02-22T06:45:08.051Z,8.20
2023-02-22T06:47:39.464Z,8.60
2023-02-22T06:50:06.951Z,8.90
2023-02-22T06:52:33.950Z,8.70
2023-02-22T06:55:00.967Z,9.20
2023-02-22T06:57:28.290Z,8.50
2023-02-22T06:59:55.205Z,8.80
2023-02-22T07:02:22.149Z,8.30
2023-02-22T07:04:49.013Z,9.10
2023-02-22T07:07:16.058Z,9.00
2023-02-22T07:09:46.581Z,9.00
2023-02-22T07:12:13.739Z,8.40
2023-02-22T07:14:40.873Z,8.90
2023-02-22T07:17:07.833Z,8.90
2023-02-22T07:19:34.730Z,9.10
2023-02-22T07:22:01.657Z,8.80
2023-02-22T07:24:29.232Z,8.40
2023-02-22T07:26:56.342Z,8.90
2023-02-22T07:29:23.698Z,8.50
2023-02-22T07:31:51.057Z,8.70
2023-02-22T07:34:20.394Z,8.60
2023-02-22T07:36:47.396Z,8.80
2023-02-22T07:39:14.650Z,9.40
2023-02-22T07:41:41.599Z,8.90
2023-02-22T07:44:22.292Z,8.10
2023-02-22T07:46:50.558Z,8.80
2023-02-22T07:49:18.605Z,7.80
2023-02-22T07:51:45.549Z,8.30
2023-02-22T07:54:12.608Z,8.50
2023-02-22T07:56:50.108Z,7.70
2023-02-22T07:59:17.241Z,8.40
2023-02-22T08:01:44.191Z,8.70
2023-02-22T08:04:11.197Z,8.20
2023-02-22T08:06:38.276Z,8.20
2023-02-22T08:09:05.225Z,7.90
2023-02-22T08:11:32.372Z,8.20
2023-02-22T08:13:59.422Z,8.50
2023-02-22T08:16:26.568Z,7.70
2023-02-22T08:18:53.618Z,8.30
2023-02-22T08:21:20.591Z,8.20
2023-02-22T08:23:53.543Z,8.00
2023-02-22T08:26:21.110Z,8.10
2023-02-22T08:28:49.318Z,8.10
2023-02-22T08:31:16.752Z,7.90
2023-02-22T08:33:47.934Z,7.80
2023-02-22T08:36:15.006Z,7.40
2023-02-22T08:38:42.100Z,7.60
2023-02-22T08:41:09.045Z,7.80
2023-02-22T08:43:36.493Z,7.60
2023-02-22T08:46:05.129Z,7.40
2023-02-22T08:48:32.170Z,7.80
2023-02-22T08:50:59.525Z,7.80
2023-02-22T08:53:26.526Z,7.20
2023-02-22T08:55:53.993Z,7.30
2023-02-22T08:58:21.014Z,7.40
2023-02-22T09:00:48.343Z,7.40
2023-02-22T09:03:16.274Z,7.30
2023-02-22T09:05:44.690Z,7.80
2023-02-22T09:08:12.074Z,7.70
2023-02-22T09:10:39.352Z,8.90
2023-02-22T09:13:06.663Z,9.60
2023-02-22T09:15:36.337Z,9.70
2023-02-22T09:18:05.001Z,10.70
2023-02-22T09:20:32.078Z,10.80
2023-02-22T09:22:59.766Z,10.50
2023-02-22T09:25:27.379Z,11.30
2023-02-22T09:27:56.034Z,10.70
2023-02-22T09:30:32.416Z,10.80
2023-02-22T09:33:12.578Z,10.30
2023-02-22T09:35:46.658Z,10.70
2023-02-22T09:38:16.196Z,10.80
2023-02-22T09:40:49.586Z,10.40
2023-02-22T09:43:41.732Z,9.50
2023-02-22T09:46:21.171Z,9.20
2023-02-22T09:48:59.283Z,9.30
2023-02-22T09:51:37.831Z,8.80
2023-02-22T09:54:14.720Z,8.40
2023-02-22T09:56:43.940Z,8.60
2023-02-22T09:59:15.876Z,8.20
2023-02-22T10:01:46.933Z,8.00
2023-02-22T10:04:47.670Z,7.60
2023-02-22T10:07:26.285Z,7.90
2023-02-22T10:09:58.252Z,7.90
2023-02-22T10:12:48.324Z,7.60
2023-02-22T10:15:51.724Z,7.70
2023-02-22T10:18:41.003Z,8.00
2023-02-22T10:21:33.037Z,9.50
2023-02-22T10:24:19.235Z,10.20
2023-02-22T10:26:47.100Z,11.10
2023-02-22T10:29:17.138Z,12.20
2023-02-22T10:31:47.314Z,12.50
2023-02-22T10:34:18.182Z,12.40
2023-02-22T10:36:48.089Z,12.80
2023-02-22T10:39:35.340Z,12.20
2023-02-22T10:42:07.067Z,11.80
2023-02-22T10:44:39.453Z,12.80
2023-02-22T10:47:10.897Z,11.20
2023-02-22T10:49:46.541Z,10.70
2023-02-22T10:52:20.210Z,10.70
2023-02-22T10:54:52.422Z,9.20
2023-02-22T10:57:32.060Z,9.10
2023-02-22T11:00:37.468Z,9.10
2023-02-22T11:03:25.344Z,8.30
2023-02-22T11:05:52.799Z,7.80
2023-02-22T11:08:28.348Z,7.90
2023-02-22T11:11:03.785Z,7.80
2023-02-22T11:13:33.803Z,7.10
2023-02-22T11:16:17.544Z,6.70
2023-02-22T11:18:46.024Z,6.80
2023-02-22T11:21:16.799Z,6.90
2023-02-22T11:23:45.035Z,6.50
2023-02-22T11:26:15.538Z,6.90
2023-02-22T11:28:56.297Z,6.70
2023-02-22T11:31:27.531Z,6.40
2023-02-22T11:34:00.129Z,6.80
2023-02-22T11:36:42.066Z,5.80
2023-02-22T11:39:34.825Z,6.10
2023-02-22T11:42:25.196Z,5.90
2023-02-22T11:45:22.138Z,6.10
2023-02-22T11:48:02.203Z,5.20
2023-02-22T11:50:57.430Z,6.00
2023-02-22T11:53:25.573Z,5.60
2023-02-22T11:56:14.822Z,6.20
2023-02-22T11:58:45.984Z,5.50
2023-02-22T12:01:18.968Z,5.40
2023-02-22T12:04:05.036Z,5.30
2023-02-22T12:06:32.222Z,5.70
2023-02-22T12:09:27.678Z,5.50
2023-02-22T12:12:25.696Z,5.40
2023-02-22T12:14:54.967Z,5.30
2023-02-22T12:17:35.261Z,5.20
2023-02-22T12:20:44.346Z,5.70
2023-02-22T12:23:23.738Z,5.50
2023-02-22T12:26:03.885Z,5.40
2023-02-22T12:28:40.565Z,5.20
2023-02-22T12:31:10.786Z,5.30
2023-02-22T12:33:54.284Z,6.10
2023-02-22T12:36:27.702Z,5.00
2023-02-22T12:39:07.513Z,5.60
2023-02-22T12:41:45.261Z,5.30
2023-02-22T12:44:21.101Z,5.50
2023-02-22T12:46:53.638Z,6.00
2023-02-22T12:49:38.706Z,5.90
2023-02-22T12:52:33.857Z,6.10
2023-02-22T12:55:13.209Z,6.40
2023-02-22T12:58:02.688Z,6.30
2023-02-22T13:01:09.039Z,5.90
2023-02-22T13:03:39.869Z,6.30
2023-02-22T13:06:32.827Z,6.10
2023-02-22T13:09:05.808Z,6.60
2023-02-22T13:11:45.066Z,6.20
2023-02-22T13:14:34.218Z,6.40
2023-02-22T13:17:24.813Z,6.50
2023-02-22T13:19:58.101Z,6.10
2023-02-22T13:22:31.023Z,6.50
2023-02-22T13:25:44.720Z,6.10
2023-02-22T13:28:43.809Z,5.80
2023-02-22T13:31:27.408Z,6.10
2023-02-22T13:34:30.952Z,5.70
2023-02-22T13:37:36.522Z,5.70
2023-02-22T13:40:45.442Z,5.50
2023-02-22T13:43:15.143Z,5.10
2023-02-22T13:45:44.852Z,5.10
2023-02-22T13:48:37.899Z,5.30
2023-02-22T13:51:08.141Z,5.50
2023-02-22T13:54:05.805Z,5.20
2023-02-22T13:56:32.942Z,5.30
2023-02-22T13:59:02.765Z,4.90
2023-02-22T14:01:48.417Z,4.70
2023-02-22T14:04:29.526Z,5.10
2023-02-22T14:07:04.965Z,4.80
2023-02-22T14:09:49.109Z,4.80
2023-02-22T14:12:32.376Z,5.20
2023-02-22T14:15:28.153Z,4.90
2023-02-22T14:18:01.282Z,4.80
2023-02-22T14:20:40.435Z,4.90
2023-02-22T14:23:44.234Z,4.50
2023-02-22T14:26:29.003Z,5.00
2023-02-22T14:29:19.033Z,4.50
2023-02-22T14:31:50.972Z,4.90
2023-02-22T14:34:24.701Z,5.10
2023-02-22T14:36:56.869Z,5.30
2023-02-22T14:39:23.714Z,4.80
2023-02-22T14:41:57.824Z,5.00
2023-02-22T14:44:32.862Z,4.70
2023-02-22T14:47:09.027Z,5.00
2023-02-22T14:49:42.924Z,4.90
2023-02-22T14:52:24.924Z,4.80
2023-02-22T14:55:05.506Z,4.80
2023-02-22T14:58:05.711Z,5.00
2023-02-22T15:00:47.393Z,4.60
2023-02-22T15:03:34.656Z,5.10
2023-02-22T15:06:16.720Z,4.30
2023-02-22T15:08:53.076Z,4.50
2023-02-22T15:11:25.564Z,4.30
2023-02-22T15:13:55.084Z,4.70
2023-02-22T15:16:25.568Z,4.50
2023-02-22T15:19:00.278Z,4.30
2023-02-22T15:21:30.462Z,4.50
2023-02-22T15:24:00.885Z,4.80
2023-02-22T15:26:44.240Z,4.60
2023-02-22T15:29:21.293Z,4.90
2023-02-22T15:31:48.787Z,4.60
2023-02-22T15:34:16.104Z,4.60
2023-02-22T15:36:48.347Z,4.60
2023-02-22T15:39:20.247Z,4.20
2023-02-22T15:41:52.130Z,4.00
2023-02-22T15:44:34.132Z,4.30
2023-02-22T15:47:01.334Z,4.00
2023-02-22T15:49:34.346Z,4.50
2023-02-22T15:52:08.705Z,4.30
2023-02-22T15:54:43.015Z,4.00
2023-02-22T15:57:13.722Z,4.30
2023-02-22T15:59:49.916Z,4.40
2023-02-22T16:02:24.321Z,4.30
2023-02-22T16:05:18.739Z,4.20
2023-02-22T16:07:50.383Z,4.20
2023-02-22T16:10:25.759Z,4.00
2023-02-22T16:13:32.149Z,3.80
2023-02-22T16:16:24.840Z,4.20
2023-02-22T16:18:53.259Z,3.50
2023-02-22T16:21:23.878Z,4.10
2023-02-22T16:24:06.980Z,4.10
2023-02-22T16:26:41.594Z,4.00
2023-02-22T16:29:09.811Z,4.10
2023-02-22T16:31:41.238Z,4.00
2023-02-22T16:34:12.079Z,4.10
2023-02-22T16:36:45.282Z,4.30
2023-02-22T16:39:27.796Z,4.60
2023-02-22T16:42:00.993Z,4.80
2023-02-22T16:44:29.988Z,4.50
2023-02-22T16:46:59.917Z,4.60
2023-02-22T16:49:28.368Z,4.10
2023-02-22T16:52:01.476Z,3.90
2023-02-22T16:54:34.519Z,4.40
2023-02-22T16:57:05.146Z,4.10
2023-02-22T16:59:37.219Z,3.90
2023-02-22T17:02:15.486Z,4.10
2023-02-22T17:04:49.579Z,4.70
2023-02-22T17:07:24.437Z,4.10
2023-02-22T17:10:04.815Z,3.80
2023-02-22T17:12:33.602Z,4.00
2023-02-22T17:15:00.548Z,4.30
2023-02-22T17:17:29.498Z,4.40
2023-02-22T17:20:02.046Z,3.90
2023-02-22T17:22:28.976Z,4.00
2023-02-22T17:24:56.299Z,4.00
2023-02-22T17:27:25.629Z,4.40
2023-02-22T17:29:53.837Z,4.00
2023-02-22T17:32:26.606Z,3.90
2023-02-22T17:34:54.035Z,3.80
2023-02-22T17:37:21.539Z,4.30
2023-02-22T17:40:04.284Z,4.20
2023-02-22T17:43:31.926Z,4.20
2023-02-22T17:46:20.289Z,3.80
2023-02-22T17:48:49.068Z,3.80
2023-02-22T17:51:16.043Z,4.30
2023-02-22T17:53:47.929Z,3.90
2023-02-22T17:56:19.619Z,4.10
2023-02-22T17:58:53.336Z,3.90
2023-02-22T18:01:29.459Z,4.00
2023-02-22T18:04:03.605Z,4.00
2023-02-22T18:09:18.833Z,3.90
2023-02-22T18:11:46.022Z,3.90
2023-02-22T18:14:13.937Z,4.00
2023-02-22T18:16:41.817Z,4.10
2023-02-22T18:19:09.366Z,4.00
2023-02-22T18:24:43.620Z,4.10
2023-02-22T18:27:26.704Z,4.10
2023-02-22T18:29:54.364Z,4.20
2023-02-22T18:32:21.689Z,4.10
2023-02-22T18:34:51.768Z,4.50
2023-02-22T18:37:20.727Z,4.10
2023-02-22T18:39:52.153Z,4.40
2023-02-22T18:42:21.691Z,4.20
2023-02-22T18:44:48.785Z,4.50
2023-02-22T18:47:17.644Z,4.40
2023-02-22T18:49:46.664Z,4.30
2023-02-22T18:52:16.428Z,4.60
2023-02-22T18:54:44.156Z,4.40
2023-02-22T18:57:13.735Z,4.60
2023-02-22T18:59:42.174Z,4.50
2023-02-22T19:02:21.542Z,4.50
2023-02-22T19:04:48.582Z,4.40
2023-02-22T19:07:20.257Z,4.60
2023-02-22T19:09:51.978Z,4.30
2023-02-22T19:12:19.559Z,4.40
2023-02-22T19:14:46.595Z,4.60
2023-02-22T19:17:23.796Z,4.30
2023-02-22T19:19:52.466Z,4.80
2023-02-22T19:22:19.919Z,5.00
2023-02-22T19:24:55.729Z,5.40
2023-02-22T19:27:27.159Z,5.20
2023-02-22T19:29:54.717Z,4.60
2023-02-22T19:32:24.467Z,4.60
2023-02-22T19:35:02.403Z,5.10
2023-02-22T19:37:35.706Z,4.90
2023-02-22T19:40:09.048Z,4.70
2023-02-22T19:42:36.032Z,5.00
2023-02-22T19:45:03.425Z,4.90
2023-02-22T19:47:30.620Z,5.70
2023-02-22T19:49:59.742Z,5.70
2023-02-22T19:52:29.103Z,5.70
2023-02-22T19:54:56.318Z,5.60
2023-02-22T19:57:24.449Z,5.70
2023-02-22T20:00:02.053Z,5.60
2023-02-22T20:02:42.044Z,5.40
2023-02-22T20:05:13.758Z,5.30
2023-02-22T20:07:43.558Z,5.60
2023-02-22T20:10:10.582Z,5.20
2023-02-22T20:12:38.791Z,5.40
2023-02-22T20:15:08.922Z,5.30
2023-02-22T20:17:38.052Z,5.40
2023-02-22T20:20:07.304Z,5.30
2023-02-22T20:22:34.782Z,5.50
2023-02-22T20:25:04.521Z,5.80
2023-02-22T20:27:31.993Z,5.20
2023-02-22T20:29:59.661Z,5.50
2023-02-22T20:32:29.702Z,5.20
2023-02-22T20:35:01.423Z,3.70
2023-02-22T20:37:28.575Z,3.20
2023-02-22T20:40:00.399Z,4.40
2023-02-22T20:42:27.984Z,4.50
2023-02-22T20:44:55.514Z,4.60
2023-02-22T20:47:34.389Z,5.00
2023-02-22T20:50:01.737Z,4.80
2023-02-22T20:52:30.947Z,4.80
2023-02-22T20:55:37.723Z,4.70
2023-02-22T20:58:06.671Z,5.00
2023-02-22T21:00:33.731Z,4.80
2023-02-22T21:03:00.652Z,5.30
2023-02-22T21:05:27.990Z,5.00
2023-02-22T21:07:59.010Z,5.10
2023-02-22T21:10:25.952Z,5.10
2023-02-22T21:12:53.975Z,5.60
2023-02-22T21:15:21.075Z,5.30
2023-02-22T21:17:48.103Z,5.70
2023-02-22T21:20:15.086Z,5.80
2023-02-22T21:22:43.987Z,5.90
2023-02-22T21:25:11.055Z,6.30
2023-02-22T21:27:38.000Z,6.10
2023-02-22T21:30:10.570Z,5.40
2023-02-22T21:32:38.219Z,6.20
2023-02-22T21:35:05.490Z,5.90
2023-02-22T21:37:34.374Z,5.40
2023-02-22T21:40:02.128Z,5.30
2023-02-22T21:42:31.403Z,6.70
2023-02-22T21:44:58.448Z,5.90
2023-02-22T21:47:28.615Z,5.40
2023-02-22T21:49:55.869Z,6.20
2023-02-22T21:52:22.933Z,5.30
2023-02-22T21:54:54.106Z,5.00
2023-02-22T21:57:22.185Z,5.10
2023-02-22T21:59:51.996Z,4.90
2023-02-22T22:02:20.580Z,5.40
2023-02-22T22:04:53.759Z,5.20
2023-02-22T22:07:22.166Z,5.40
2023-02-22T22:09:58.188Z,4.80
2023-02-22T22:12:37.498Z,5.10
2023-02-22T22:15:06.406Z,4.90
2023-02-22T22:17:33.451Z,4.80
2023-02-22T22:20:00.394Z,4.80
2023-02-22T22:22:28.577Z,5.30
2023-02-22T22:24:55.624Z,4.80
2023-02-22T22:27:22.565Z,5.20
2023-02-22T22:29:49.452Z,4.80
2023-02-22T22:32:16.534Z,4.80
2023-02-22T22:34:44.218Z,5.10
2023-02-22T22:37:11.166Z,5.50
2023-02-22T22:39:38.731Z,5.70
2023-02-22T22:42:05.968Z,5.40
2023-02-22T22:44:42.169Z,6.00
2023-02-22T22:47:12.458Z,5.90
2023-02-22T22:49:42.909Z,6.20
2023-02-22T22:52:11.563Z,5.70
2023-02-22T22:54:38.618Z,5.70
2023-02-22T22:57:06.787Z,5.90
2023-02-22T22:59:34.552Z,5.90
2023-02-22T23:02:04.056Z,5.80
2023-02-22T23:04:31.108Z,5.90
2023-02-22T23:06:58.253Z,5.90
2023-02-22T23:09:27.039Z,5.80
2023-02-22T23:12:09.263Z,6.00
2023-02-22T23:14:44.411Z,6.00
2023-02-22T23:17:27.107Z,5.80
2023-02-22T23:19:54.177Z,5.60
2023-02-22T23:22:21.600Z,5.50
2023-02-22T23:24:48.730Z,5.80
2023-02-22T23:27:21.661Z,6.30
2023-02-22T23:29:49.725Z,6.30
2023-02-22T23:32:17.483Z,5.90
2023-02-22T23:34:44.631Z,5.80
2023-02-22T23:37:14.386Z,6.10
2023-02-22T23:39:41.694Z,5.80
2023-02-22T23:42:11.597Z,6.20
2023-02-22T23:44:40.139Z,6.00
2023-02-22T23:47:07.445Z,6.10
2023-02-22T23:49:38.799Z,5.70
2023-02-22T23:52:06.643Z,5.30
2023-02-22T23:54:36.804Z,5.90
2023-02-22T23:57:05.558Z,5.70
2023-02-22T23:59:33.774Z,5.70
